Time;durP1;ratioP1;P1;durP2;ratioP2;P2;SDS_P1;SDS_P2;PMS_P1;PMS_P2;Temp;Humidity;BMP_temperature;BMP_pressure;BME280_temperature;BME280_humidity;BME280_pressure;Samples;Min_cycle;Max_cycle;Signal;HPM_P1;HPM_P2
2023/08/26 00:02:27;;;;;;;9.77;6.18;;;;;;;-141.84;100.00;20610.59;5038513;28;20197;-60
2023/08/26 00:04:56;;;;;;;8.23;6.13;;;;;;;-141.84;100.00;20608.56;5054988;28;20676;-67
2023/08/26 00:07:26;;;;;;;8.18;6.68;;;;;;;-141.84;100.00;20584.19;5054848;28;20248;-68
2023/08/26 00:09:54;;;;;;;6.97;6.25;;;;;;;-141.84;100.00;20592.31;5054698;28;20206;-67
2023/08/26 00:12:23;;;;;;;9.05;6.70;;;;;;;-141.84;100.00;20602.47;5055077;28;20205;-67
2023/08/26 00:14:51;;;;;;;8.32;6.25;;;;;;;-141.84;100.00;20584.19;5054471;28;20209;-67
2023/08/26 00:17:20;;;;;;;9.23;6.38;;;;;;;-141.84;100.00;20630.94;5042419;28;20316;-66
2023/08/26 00:19:50;;;;;;;8.73;7.25;;;;;;;-141.84;100.00;20580.13;5034908;28;20296;-68
2023/08/26 00:22:18;;;;;;;7.18;6.32;;;;;;;-141.84;100.00;20610.59;5034292;28;20605;-66
2023/08/26 00:24:49;;;;;;;7.10;6.40;;;;;;;-141.84;99.91;20598.41;5034882;28;20244;-67
2023/08/26 00:27:17;;;;;;;6.97;6.30;;;;;;;-141.84;99.75;20594.34;5035307;28;20200;-69
2023/08/26 00:29:45;;;;;;;7.13;6.43;;;;;;;-141.84;99.76;20612.63;5034416;28;20228;-67
2023/08/26 00:32:14;;;;;;;7.22;6.53;;;;;;;-141.84;99.54;20643.13;5034829;28;20297;-67
2023/08/26 00:34:43;;;;;;;7.10;6.50;;;;;;;-141.84;99.13;20628.91;5034702;28;20206;-66
2023/08/26 00:37:13;;;;;;;7.82;6.75;;;;;;;-141.84;98.82;20671.59;5034498;28;20602;-69
2023/08/26 00:39:41;;;;;;;7.90;6.60;;;;;;;-141.84;98.56;20671.59;5036503;28;20684;-67
2023/08/26 00:42:11;;;;;;;7.30;6.38;;;;;;;-141.84;98.78;20681.75;5054661;28;20205;-67
2023/08/26 00:44:39;;;;;;;9.00;7.28;;;;;;;-141.84;99.14;20675.66;5053773;28;20283;-67
2023/08/26 00:47:08;;;;;;;9.18;6.82;;;;;;;-141.84;99.24;20679.72;5042066;28;20269;-68
2023/08/26 00:49:37;;;;;;;7.40;6.80;;;;;;;-141.84;99.39;20675.66;5034311;28;20210;-67
2023/08/26 00:52:07;;;;;;;10.55;6.70;;;;;;;-141.84;99.05;20673.63;5033848;28;20212;-66
2023/08/26 00:54:36;;;;;;;8.10;6.97;;;;;;;-141.84;99.19;20657.34;5034371;28;20245;-67
2023/08/26 00:57:07;;;;;;;7.55;6.85;;;;;;;-141.84;99.14;20667.53;5034242;28;20285;-67
2023/08/26 00:59:37;;;;;;;8.23;6.80;;;;;;;-141.84;99.36;20671.59;5033819;28;20187;-67
2023/08/26 01:02:06;;;;;;;8.43;6.72;;;;;;;-141.84;99.36;20645.16;5035247;28;20727;-67
2023/08/26 01:04:35;;;;;;;8.10;6.90;;;;;;;-141.84;99.19;20671.59;5054187;28;20571;-68
2023/08/26 01:07:04;;;;;;;9.52;7.18;;;;;;;-141.84;99.00;20651.25;5054084;28;20236;-66
2023/08/26 01:09:33;;;;;;;7.75;6.78;;;;;;;-141.84;98.19;20691.91;5053952;28;20247;-68
2023/08/26 01:12:11;;;;;;;7.35;6.72;;;;;;;-141.84;98.07;20708.19;5053914;28;20668;-68
2023/08/26 01:14:46;;;;;;;7.43;6.72;;;;;;;-141.84;97.89;20714.28;5044907;28;20218;-68
2023/08/26 01:17:14;;;;;;;7.63;6.93;;;;;;;-141.84;97.48;20714.28;5045006;28;20640;-67
2023/08/26 01:19:45;;;;;;;8.82;6.68;;;;;;;-141.84;96.78;20732.56;5053663;28;20555;-66
2023/08/26 01:22:16;;;;;;;7.57;6.88;;;;;;;-141.84;96.85;20736.63;5037861;28;20572;-68
2023/08/26 01:24:46;;;;;;;7.07;6.47;;;;;;;-141.84;97.28;20726.47;5033623;28;20213;-67
2023/08/26 01:27:15;;;;;;;7.75;6.45;;;;;;;-141.84;97.67;20736.63;5033803;28;20220;-68
2023/08/26 01:29:43;;;;;;;8.38;7.57;;;;;;;-141.84;97.64;20691.91;5033280;28;20206;-67
2023/08/26 01:32:19;;;;;;;8.50;6.95;;;;;;;-141.84;97.87;20750.88;5033599;28;20621;-67
2023/08/26 01:34:51;;;;;;;7.68;6.97;;;;;;;-141.84;98.18;20687.84;5033830;28;20232;-69
2023/08/26 01:37:21;;;;;;;7.28;6.65;;;;;;;-141.84;98.63;20712.25;5033371;28;20669;-68
2023/08/26 01:39:53;;;;;;;8.57;7.68;;;;;;;-141.84;98.85;20665.50;5036980;28;20194;-65
2023/08/26 01:42:24;;;;;;;7.47;6.70;;;;;;;-141.84;99.30;20659.38;5053265;28;20676;-66
2023/08/26 01:44:52;;;;;;;8.35;7.55;;;;;;;-141.84;99.61;20643.13;5052414;28;20360;-66
2023/08/26 01:47:21;;;;;;;8.68;7.80;;;;;;;-141.84;99.65;20669.56;5052869;28;20209;-67
2023/08/26 01:49:49;;;;;;;8.15;7.35;;;;;;;-141.84;99.50;20665.50;5053065;28;20720;-66
2023/08/26 01:52:18;;;;;;;8.70;7.60;;;;;;;-141.84;99.48;20673.63;5036637;28;20210;-68
2023/08/26 01:54:49;;;;;;;8.15;7.18;;;;;;;-141.84;99.46;20675.66;5033159;28;20281;-67
2023/08/26 01:57:19;;;;;;;8.85;7.75;;;;;;;-141.84;99.54;20689.88;5033025;28;20196;-66
2023/08/26 01:59:47;;;;;;;8.27;7.47;;;;;;;-141.84;98.80;20740.69;5032610;28;20323;-67
2023/08/26 02:02:16;;;;;;;7.93;7.13;;;;;;;-141.84;98.66;20689.88;5035761;28;20197;-65
2023/08/26 02:04:44;;;;;;;9.73;8.25;;;;;;;-141.84;99.09;20687.84;5053103;28;20642;-66
2023/08/26 02:07:13;;;;;;;9.07;7.75;;;;;;;-141.84;98.96;20681.75;5052869;28;20292;-68
2023/08/26 02:09:42;;;;;;;8.82;7.82;;;;;;;-141.84;99.02;20689.88;5052543;28;20233;-67
2023/08/26 02:12:10;;;;;;;8.68;7.88;;;;;;;-141.84;98.74;20695.97;5052728;28;20202;-67
2023/08/26 02:14:40;;;;;;;8.73;7.93;;;;;;;-141.84;98.70;20683.78;5051906;28;20296;-67
2023/08/26 02:17:09;;;;;;;10.07;7.75;;;;;;;-141.84;98.95;20671.59;5052865;28;20305;-68
2023/08/26 02:19:37;;;;;;;7.93;7.07;;;;;;;-141.84;99.38;20675.66;5052534;28;20317;-67
2023/08/26 02:22:06;;;;;;;9.18;8.18;;;;;;;-141.84;99.79;20626.88;5037896;28;20206;-66
2023/08/26 02:24:34;;;;;;;8.18;7.40;;;;;;;-141.84;99.73;20659.38;5031779;28;20699;-66
2023/08/26 02:27:03;;;;;;;10.07;7.80;;;;;;;-141.84;99.96;20637.03;5032700;28;20202;-65
2023/08/26 02:29:32;;;;;;;8.82;7.93;;;;;;;-141.84;99.97;20659.38;5024941;28;20202;-67
2023/08/26 02:32:01;;;;;;;10.05;7.03;;;;;;;-141.84;99.39;20665.50;5032408;28;20300;-66
2023/08/26 02:34:30;;;;;;;8.32;6.93;;;;;;;-141.84;98.97;20655.31;5032434;28;20765;-67
2023/08/26 02:36:58;;;;;;;9.98;7.15;;;;;;;-141.84;98.65;20687.84;5032489;28;20202;-66
2023/08/26 02:39:27;;;;;;;10.70;7.25;;;;;;;-141.84;99.23;20655.31;5032866;28;20222;-67
2023/08/26 02:41:55;;;;;;;9.35;7.05;;;;;;;-141.84;99.00;20637.03;5052483;28;20605;-67
2023/08/26 02:44:24;;;;;;;7.93;6.90;;;;;;;-141.84;99.73;20653.28;5052502;28;20229;-67
2023/08/26 02:46:52;;;;;;;7.93;7.13;;;;;;;-141.84;99.73;20620.78;5052203;28;20263;-66
2023/08/26 02:49:22;;;;;;;8.05;6.53;;;;;;;-141.84;99.79;20620.78;5052566;28;20201;-66
2023/08/26 02:51:51;;;;;;;8.93;7.50;;;;;;;-141.84;100.00;20586.22;5051966;28;20197;-66
2023/08/26 02:54:19;;;;;;;8.07;7.10;;;;;;;-141.84;99.48;20630.94;5052254;28;20296;-66
2023/08/26 02:56:48;;;;;;;7.78;6.85;;;;;;;-141.84;99.48;20635.00;5052170;28;20630;-68
2023/08/26 02:59:16;;;;;;;9.13;6.85;;;;;;;-141.84;99.81;20610.59;5052179;28;20231;-67
2023/08/26 03:01:45;;;;;;;8.00;7.20;;;;;;;-141.84;100.00;20590.28;5051781;28;20702;-67
2023/08/26 03:04:13;;;;;;;7.88;7.07;;;;;;;-141.84;100.00;20584.19;5051974;28;20202;-66
2023/08/26 03:06:43;;;;;;;8.10;7.30;;;;;;;-141.84;100.00;20582.16;5052060;28;20198;-67
2023/08/26 03:09:12;;;;;;;7.35;6.65;;;;;;;-141.84;100.00;20529.28;5051817;28;20240;-67
2023/08/26 03:11:40;;;;;;;7.63;6.93;;;;;;;-141.84;100.00;20506.94;5051910;28;20229;-67
2023/08/26 03:14:09;;;;;;;8.10;7.30;;;;;;;-141.84;100.00;20511.00;5051822;28;20248;-67
2023/08/26 03:16:37;;;;;;;8.07;7.38;;;;;;;-141.84;100.00;20511.00;5052010;28;20240;-67
2023/08/26 03:19:06;;;;;;;11.15;7.10;;;;;;;-141.84;100.00;20525.22;5052223;28;20278;-67
2023/08/26 03:21:34;;;;;;;10.77;7.60;;;;;;;-141.84;100.00;20508.97;5052384;28;20292;-67
2023/08/26 03:24:05;;;;;;;8.15;6.97;;;;;;;-141.84;100.00;20545.56;5051765;28;20236;-67
2023/08/26 03:26:33;;;;;;;8.45;6.55;;;;;;;-141.84;100.00;20582.16;5052264;28;20192;-69
2023/08/26 03:29:03;;;;;;;7.40;6.65;;;;;;;-141.84;100.00;20569.94;5050081;28;20194;-65
2023/08/26 03:31:31;;;;;;;8.20;7.40;;;;;;;-141.84;99.96;20555.72;5031857;28;20208;-66
2023/08/26 03:34:00;;;;;;;8.27;6.45;;;;;;;-141.84;100.00;20537.44;5031974;28;20210;-67
2023/08/26 03:36:28;;;;;;;7.35;6.68;;;;;;;-141.84;100.00;20565.88;5033582;28;20260;-67
2023/08/26 03:38:57;;;;;;;7.43;6.35;;;;;;;-141.84;99.99;20584.19;5035693;28;20224;-66
2023/08/26 03:41:27;;;;;;;7.80;6.68;;;;;;;-141.84;100.00;20574.00;5035850;28;20782;-66
2023/08/26 03:43:56;;;;;;;7.97;6.35;;;;;;;-141.84;99.23;20582.16;5035578;28;20320;-67
2023/08/26 03:46:25;;;;;;;12.32;6.55;;;;;;;-141.84;99.34;20594.34;5039883;28;20231;-66
2023/08/26 03:48:53;;;;;;;6.95;6.25;;;;;;;-141.84;99.38;20545.56;5055691;28;20258;-67
2023/08/26 03:51:23;;;;;;;8.05;5.68;;;;;;;-141.84;99.76;20545.56;5055469;28;20201;-66
2023/08/26 03:53:51;;;;;;;8.02;6.10;;;;;;;-141.84;99.88;20545.56;5055682;28;20231;-66
2023/08/26 03:56:20;;;;;;;7.20;6.05;;;;;;;-141.84;100.00;20511.00;5055375;28;20300;-67
2023/08/26 03:58:52;;;;;;;7.28;6.15;;;;;;;-141.84;100.00;20535.41;5055319;28;20316;-67
2023/08/26 04:01:20;;;;;;;7.95;6.00;;;;;;;-141.84;100.00;20508.97;5055387;28;20189;-66
2023/08/26 04:03:52;;;;;;;8.02;6.00;;;;;;;-141.84;100.00;20502.88;5055379;28;20201;-66
2023/08/26 04:06:20;;;;;;;7.93;6.80;;;;;;;-141.84;100.00;20525.22;5055029;28;20613;-66
2023/08/26 04:08:49;;;;;;;7.95;6.22;;;;;;;-141.84;100.00;20563.84;5055093;28;20212;-67
2023/08/26 04:11:17;;;;;;;7.05;5.75;;;;;;;-141.84;100.00;20504.91;5054981;28;20245;-69
2023/08/26 04:13:46;;;;;;;7.47;5.68;;;;;;;-141.84;100.00;20492.72;5054903;28;20768;-66
2023/08/26 04:16:19;;;;;;;8.63;5.75;;;;;;;-141.84;100.00;20527.25;5055133;28;20213;-67
2023/08/26 04:18:47;;;;;;;8.70;5.65;;;;;;;-141.84;100.00;20531.31;5054952;28;20185;-67
2023/08/26 04:21:16;;;;;;;8.75;5.75;;;;;;;-141.84;100.00;20517.09;5055096;28;20223;-67
2023/08/26 04:23:45;;;;;;;5.15;4.68;;;;;;;-141.84;100.00;20506.94;5055148;28;20244;-68
2023/08/26 04:26:13;;;;;;;5.57;5.07;;;;;;;-141.84;99.68;20513.03;5055016;28;20205;-66
2023/08/26 04:28:42;;;;;;;6.53;5.82;;;;;;;-141.84;99.41;20525.22;5054673;28;20202;-67
2023/08/26 04:31:11;;;;;;;6.47;5.30;;;;;;;-141.84;99.39;20529.28;5034736;28;20206;-68
2023/08/26 04:33:43;;;;;;;10.30;5.78;;;;;;;-141.84;99.39;20543.53;5034771;28;20477;-67
2023/08/26 04:36:11;;;;;;;6.60;5.47;;;;;;;-141.84;98.98;20557.75;5034901;28;20214;-66
2023/08/26 04:38:40;;;;;;;9.77;6.05;;;;;;;-141.84;98.55;20547.59;5034361;28;20212;-66
2023/08/26 04:41:09;;;;;;;6.22;5.22;;;;;;;-141.84;97.60;20553.69;5034419;28;20759;-68
2023/08/26 04:43:38;;;;;;;8.38;5.80;;;;;;;-141.84;97.64;20622.81;5034177;28;20242;-67
2023/08/26 04:46:06;;;;;;;7.72;5.30;;;;;;;-141.84;97.92;20541.50;5034417;28;20194;-67
2023/08/26 04:48:35;;;;;;;5.68;5.15;;;;;;;-141.84;97.99;20557.75;5032419;28;20210;-67
2023/08/26 04:51:05;;;;;;;7.40;4.95;;;;;;;-141.84;98.04;20535.41;5033150;28;20198;-68
2023/08/26 04:53:34;;;;;;;5.45;4.60;;;;;;;-141.84;97.73;20565.88;5033445;28;20213;-67
2023/08/26 04:56:03;;;;;;;5.50;4.97;;;;;;;-141.84;97.59;20576.03;5033778;28;20575;-67
2023/08/26 04:58:31;;;;;;;9.38;5.05;;;;;;;-141.84;97.59;20549.63;5030600;28;20218;-67
2023/08/26 05:01:00;;;;;;;5.38;4.88;;;;;;;-141.84;97.73;20547.59;5033545;28;20303;-67
2023/08/26 05:03:28;;;;;;;6.95;4.80;;;;;;;-141.84;98.10;20508.97;5042027;28;20651;-66
2023/08/26 05:05:57;;;;;;;5.90;4.95;;;;;;;-141.84;98.50;20517.09;5033596;28;20205;-67
2023/08/26 05:08:27;;;;;;;6.13;4.70;;;;;;;-141.84;98.48;20539.47;5033277;28;20213;-67
2023/08/26 05:10:56;;;;;;;5.35;4.68;;;;;;;-141.84;98.44;20539.47;5032939;28;20202;-67
2023/08/26 05:13:25;;;;;;;6.75;4.75;;;;;;;-141.84;98.40;20600.44;5033452;28;20206;-67
2023/08/26 05:15:53;;;;;;;6.97;4.45;;;;;;;-141.84;97.86;20569.94;5034188;28;20297;-66
2023/08/26 05:18:22;;;;;;;6.93;4.80;;;;;;;-141.84;97.88;20537.44;5053280;28;20271;-66
2023/08/26 05:20:50;;;;;;;5.28;4.28;;;;;;;-141.84;97.85;20586.22;5053844;28;20218;-67
2023/08/26 05:23:19;;;;;;;6.43;4.07;;;;;;;-141.84;97.99;20533.34;5053569;28;20299;-67
2023/08/26 05:25:49;;;;;;;5.45;4.50;;;;;;;-141.84;97.82;20565.88;5053735;28;20197;-66
2023/08/26 05:28:17;;;;;;;7.20;4.63;;;;;;;-141.84;97.48;20582.16;5054291;28;20568;-67
2023/08/26 05:30:46;;;;;;;5.18;4.68;;;;;;;-141.84;97.23;20569.94;5053426;28;20278;-68
2023/08/26 05:33:14;;;;;;;6.03;4.45;;;;;;;-141.84;96.58;20555.72;5053198;28;20533;-67
2023/08/26 05:35:43;;;;;;;6.35;4.22;;;;;;;-141.84;96.85;20580.13;5053284;28;20675;-66
2023/08/26 05:38:11;;;;;;;4.28;3.78;;;;;;;-141.84;96.42;20590.28;5053531;28;20304;-67
2023/08/26 05:40:40;;;;;;;5.40;3.75;;;;;;;-141.84;95.74;20592.31;5053189;28;20320;-67
2023/08/26 05:43:10;;;;;;;5.13;3.85;;;;;;;-141.84;95.44;20596.38;5043643;28;20328;-66
2023/08/26 05:45:38;;;;;;;7.10;3.83;;;;;;;-141.84;94.73;20622.81;5033542;28;20213;-68
2023/08/26 05:48:07;;;;;;;4.65;3.45;;;;;;;-141.84;93.04;20639.06;5050710;28;20681;-68
2023/08/26 05:50:36;;;;;;;4.65;3.38;;;;;;;-141.84;92.62;20639.06;5053134;28;20206;-66
2023/08/26 05:53:05;;;;;;;4.95;3.63;;;;;;;-141.84;92.71;20602.47;5053276;28;20224;-66
2023/08/26 05:55:35;;;;;;;4.00;3.60;;;;;;;-141.84;92.65;20655.31;5053115;28;20224;-66
2023/08/26 05:58:03;;;;;;;4.78;3.88;;;;;;;-141.84;92.63;20649.22;5052892;28;20209;-67
2023/08/26 06:00:34;;;;;;;3.75;3.30;;;;;;;-141.84;91.32;20687.84;5052425;28;20221;-67
2023/08/26 06:03:02;;;;;;;4.15;3.75;;;;;;;-141.84;90.53;20695.97;5052392;28;20263;-67
2023/08/26 06:05:31;;;;;;;7.40;3.83;;;;;;;-141.84;89.92;20744.78;5053067;28;20210;-66
2023/08/26 06:07:59;;;;;;;5.60;3.40;;;;;;;-141.84;90.25;20685.81;5052896;28;20197;-67
2023/08/26 06:10:29;;;;;;;4.82;3.75;;;;;;;-141.84;90.62;20665.50;5053010;28;20197;-67
2023/08/26 06:12:57;;;;;;;4.60;3.55;;;;;;;-141.84;91.39;20669.56;5044948;28;20206;-67
2023/08/26 06:15:26;;;;;;;4.45;3.75;;;;;;;-141.84;91.12;20708.19;5033007;28;20256;-66
2023/08/26 06:17:56;;;;;;;6.10;3.80;;;;;;;-141.84;91.33;20714.28;5048930;28;20232;-66
2023/08/26 06:20:25;;;;;;;5.20;3.63;;;;;;;-141.84;90.50;20750.88;5052571;28;20255;-67
2023/08/26 06:22:54;;;;;;;5.13;3.97;;;;;;;-141.84;90.18;20712.25;5052709;28;20289;-66
2023/08/26 06:25:23;;;;;;;3.85;3.45;;;;;;;-141.84;90.45;20754.94;5052266;28;20673;-68
2023/08/26 06:27:51;;;;;;;4.35;3.67;;;;;;;-141.84;90.56;20726.47;5052578;28;20203;-66
2023/08/26 06:30:21;;;;;;;4.07;3.65;;;;;;;-141.84;91.05;20706.16;5052455;28;20197;-66
2023/08/26 06:32:50;;;;;;;5.53;3.83;;;;;;;-141.84;91.21;20712.25;5051815;28;20205;-67
2023/08/26 06:35:24;;;;;;;6.63;3.78;;;;;;;-141.84;91.60;20712.25;5052427;28;20202;-66
2023/08/26 06:37:52;;;;;;;6.18;4.07;;;;;;;-141.84;92.22;20685.81;5052394;28;20272;-66
2023/08/26 06:40:21;;;;;;;5.93;3.70;;;;;;;-141.84;92.29;20706.16;5052126;28;20380;-67
2023/08/26 06:42:49;;;;;;;5.70;4.60;;;;;;;-141.84;90.32;20777.28;5045244;28;20222;-67
2023/08/26 06:45:18;;;;;;;5.55;3.92;;;;;;;-141.84;89.77;20817.94;5032252;28;20190;-67
2023/08/26 06:47:46;;;;;;;5.35;3.97;;;;;;;-141.84;88.47;20842.34;5047086;28;20214;-67
2023/08/26 06:50:15;;;;;;;5.57;4.03;;;;;;;-141.84;87.14;20897.25;5052242;28;20251;-67
2023/08/26 06:52:45;;;;;;;5.10;4.00;;;;;;;-141.84;85.00;20917.56;5052243;28;20284;-66
2023/08/26 06:55:13;;;;;;;5.85;3.88;;;;;;;-141.84;83.72;20893.16;5052317;28;20212;-68
2023/08/26 06:57:42;;;;;;;4.95;4.45;;;;;;;-141.84;85.10;20903.34;5052333;28;20209;-67
2023/08/26 07:00:12;;;;;;;6.22;4.18;;;;;;;-141.84;85.04;20960.25;5051458;28;20223;-68
2023/08/26 07:02:40;;;;;;;4.60;4.18;;;;;;;-141.84;84.44;20968.38;5051055;28;20203;-67
2023/08/26 07:05:09;;;;;;;6.05;4.30;;;;;;;-141.84;82.41;20988.72;5051783;28;20398;-68
2023/08/26 07:07:37;;;;;;;5.43;4.18;;;;;;;-141.84;81.15;21084.28;5051786;28;20197;-69
2023/08/26 07:10:08;;;;;;;5.85;4.13;;;;;;;-141.84;81.59;21110.69;5051682;28;20626;-67
2023/08/26 07:12:37;;;;;;;4.78;4.13;;;;;;;-141.84;78.15;21200.16;5046552;28;20240;-67
2023/08/26 07:15:06;;;;;;;4.55;3.60;;;;;;;-141.84;79.11;21185.91;5032049;28;20402;-67
2023/08/26 07:17:35;;;;;;;3.78;3.20;;;;;;;-141.84;79.79;21155.44;5044975;28;20209;-67
2023/08/26 07:20:04;;;;;;;4.18;3.65;;;;;;;-141.84;79.57;21145.25;5051973;28;20259;-67
2023/08/26 07:22:32;;;;;;;3.20;3.00;;;;;;;-141.84;78.04;21194.06;5051386;28;20696;-67
2023/08/26 07:25:00;;;;;;;3.97;2.95;;;;;;;-141.84;77.87;21175.75;5051666;28;20201;-68
2023/08/26 07:27:30;;;;;;;3.00;2.60;;;;;;;-141.84;77.78;21143.22;5051593;28;20682;-66
2023/08/26 07:29:59;;;;;;;3.53;2.45;;;;;;;-141.84;79.70;21106.63;5051704;28;20193;-67
2023/08/26 07:32:27;;;;;;;3.45;2.20;;;;;;;-141.84;79.42;21098.50;5050741;28;20663;-67
2023/08/26 07:34:56;;;;;;;1.85;1.70;;;;;;;-141.84;79.61;21070.03;5051399;28;20696;-67
2023/08/26 07:37:24;;;;;;;1.98;1.77;;;;;;;-141.84;81.09;21019.22;5051480;28;20708;-68
2023/08/26 07:39:53;;;;;;;2.75;1.70;;;;;;;-141.84;81.01;21025.31;5051164;28;20209;-67
2023/08/26 07:42:23;;;;;;;2.83;1.75;;;;;;;-141.84;81.22;21057.84;5048737;28;20225;-67
2023/08/26 07:44:52;;;;;;;1.92;1.10;;;;;;;-141.84;79.20;21118.84;5031247;28;20226;-67
2023/08/26 07:47:21;;;;;;;2.38;1.10;;;;;;;-141.84;77.05;21212.34;5034498;28;20577;-67
2023/08/26 07:49:49;;;;;;;1.05;0.93;;;;;;;-141.84;76.85;21228.63;5031737;28;20263;-67
2023/08/26 07:52:18;;;;;;;1.40;0.90;;;;;;;-141.84;76.21;21224.56;5031702;28;20202;-67
2023/08/26 07:54:46;;;;;;;1.75;1.20;;;;;;;-141.84;77.32;21236.75;5031518;28;20202;-68
2023/08/26 07:57:15;;;;;;;1.10;1.00;;;;;;;-141.84;76.81;21257.09;5031426;28;20661;-67
2023/08/26 07:59:43;;;;;;;1.20;1.08;;;;;;;-141.84;78.31;21173.72;5031363;28;20212;-68
2023/08/26 08:02:13;;;;;;;1.70;1.00;;;;;;;-141.84;79.32;21139.16;5030956;28;20240;-67
2023/08/26 08:04:41;;;;;;;1.33;1.23;;;;;;;-141.84;78.76;21151.34;5031478;28;20201;-68
2023/08/26 08:07:10;;;;;;;1.48;1.33;;;;;;;-141.84;80.97;21133.06;5031270;28;20198;-68
2023/08/26 08:09:39;;;;;;;1.65;1.38;;;;;;;-141.84;80.64;21124.94;5031228;28;20198;-67
2023/08/26 08:12:09;;;;;;;2.92;1.80;;;;;;;-141.84;81.53;21094.44;5030884;28;20217;-67
2023/08/26 08:14:38;;;;;;;2.90;1.90;;;;;;;-141.84;81.75;21098.50;5031258;28;20205;-68
2023/08/26 08:17:06;;;;;;;2.58;2.00;;;;;;;-141.84;81.30;21133.06;5041218;28;20223;-67
2023/08/26 08:19:41;;;;;;;2.80;2.60;;;;;;;-141.84;81.68;21106.63;5051051;28;20288;-68
2023/08/26 08:22:10;;;;;;;3.60;2.97;;;;;;;-141.84;82.37;21100.53;5051676;28;20738;-68
2023/08/26 08:24:40;;;;;;;5.72;4.10;;;;;;;-141.84;80.32;21135.09;5054922;28;20285;-69
2023/08/26 08:27:09;;;;;;;5.90;4.60;;;;;;;-141.84;79.46;21177.78;5055078;28;20216;-67
2023/08/26 08:29:37;;;;;;;5.80;4.45;;;;;;;-141.84;79.32;21175.75;5054993;28;20208;-67
2023/08/26 08:32:06;;;;;;;6.20;5.40;;;;;;;-141.84;78.50;21200.16;5054329;28;20197;-68
2023/08/26 08:34:36;;;;;;;8.48;5.70;;;;;;;-141.84;78.18;21220.47;5055161;28;20201;-67
2023/08/26 08:37:06;;;;;;;7.07;5.70;;;;;;;-141.84;77.61;21224.56;5054877;28;20292;-68
2023/08/26 08:39:36;;;;;;;7.93;6.03;;;;;;;-141.84;77.00;21267.25;5054530;28;20281;-67
2023/08/26 08:42:07;;;;;;;7.03;6.20;;;;;;;-141.84;76.24;21269.28;5054207;28;20684;-68
2023/08/26 08:44:41;;;;;;;7.88;6.60;;;;;;;-141.84;77.53;21271.31;5014516;28;20274;-68
2023/08/26 08:47:10;;;;;;;7.63;6.47;;;;;;;-141.84;74.83;21362.81;5035274;28;20296;-67
2023/08/26 08:49:39;;;;;;;7.65;5.70;;;;;;;-141.84;73.94;21391.28;5054420;28;20197;-68
2023/08/26 08:52:10;;;;;;;8.15;6.07;;;;;;;-141.84;74.66;21399.41;5054416;28;20221;-68
2023/08/26 08:54:40;;;;;;;6.07;5.35;;;;;;;-141.84;72.58;21407.53;5054374;28;20232;-68
2023/08/26 08:57:13;;;;;;;5.85;5.25;;;;;;;-141.84;74.18;21379.06;5054265;28;20281;-67
2023/08/26 08:59:42;;;;;;;6.18;5.57;;;;;;;-141.84;73.80;21387.19;5053866;28;20539;-69
2023/08/26 09:02:12;;;;;;;6.68;5.82;;;;;;;-141.84;72.41;21399.41;5046027;28;20253;-67
2023/08/26 09:04:41;;;;;;;7.28;5.72;;;;;;;-141.84;73.15;21409.56;5023133;28;20206;-69
2023/08/26 09:07:12;;;;;;;7.93;6.15;;;;;;;-141.84;72.72;21431.94;5021756;28;20290;-68
2023/08/26 09:09:41;;;;;;;7.35;6.20;;;;;;;-141.84;72.04;21466.50;5022311;28;20210;-67
2023/08/26 09:12:27;;;;;;;7.72;5.95;;;;;;;-141.84;70.87;21513.25;5024159;28;20210;-68
2023/08/26 09:14:55;;;;;;;7.85;6.05;;;;;;;-141.84;71.80;21468.53;5019862;28;20234;-69
2023/08/26 09:17:24;;;;;;;8.13;6.10;;;;;;;-141.84;70.87;21533.59;5036629;28;20206;-69
2023/08/26 09:19:54;;;;;;;6.32;5.70;;;;;;;-141.84;69.91;21596.63;5019526;28;20238;-70
2023/08/26 09:22:27;;;;;;;5.78;5.15;;;;;;;-141.84;66.30;21708.47;5021371;28;20218;-68
2023/08/26 09:24:57;;;;;;;6.65;5.00;;;;;;;-141.84;66.19;21741.00;5026150;28;20309;-68
2023/08/26 09:27:25;;;;;;;7.20;5.20;;;;;;;-141.84;66.96;21686.09;5024453;28;20209;-67
2023/08/26 09:29:55;;;;;;;9.02;5.30;;;;;;;-141.84;67.80;21639.31;5020581;28;20221;-67
2023/08/26 09:32:33;;;;;;;6.05;4.93;;;;;;;-141.84;67.90;21616.97;5020058;28;20241;-66
2023/08/26 09:35:13;;;;;;;5.70;4.97;;;;;;;-141.84;68.41;21592.56;5025111;28;20689;-66
2023/08/26 09:37:46;;;;;;;6.13;5.03;;;;;;;-141.84;69.06;21588.50;5019503;28;20289;-67
2023/08/26 09:40:16;;;;;;;6.05;4.50;;;;;;;-141.84;65.97;21653.56;5019774;28;20245;-68
2023/08/26 09:42:45;;;;;;;4.82;4.10;;;;;;;-141.84;67.24;21631.19;5020433;28;20246;-67
2023/08/26 09:45:17;;;;;;;7.43;4.45;;;;;;;-141.84;67.59;21651.53;5017166;28;20712;-68
2023/08/26 09:47:48;;;;;;;4.53;3.70;;;;;;;-141.84;67.70;21653.56;5023038;28;20199;-63
2023/08/26 09:50:18;;;;;;;6.18;3.90;;;;;;;-141.84;63.13;21769.47;5024894;28;20190;-67
2023/08/26 09:52:49;;;;;;;5.35;4.10;;;;;;;-141.84;63.80;21808.09;5024561;28;20571;-66
2023/08/26 09:55:19;;;;;;;4.50;3.38;;;;;;;-141.84;63.12;21826.41;5025292;28;20207;-65
2023/08/26 09:57:47;;;;;;;5.95;3.80;;;;;;;-141.84;63.99;21779.63;5024685;28;20285;-66
2023/08/26 10:00:17;;;;;;;4.82;3.67;;;;;;;-141.84;65.32;21708.47;5020276;28;20199;-65
2023/08/26 10:02:49;;;;;;;5.45;3.83;;;;;;;-141.84;64.29;21759.28;5024693;28;20209;-66
2023/08/26 10:05:20;;;;;;;6.18;3.60;;;;;;;-141.84;64.90;21743.03;5019971;28;20225;-67
2023/08/26 10:07:52;;;;;;;8.20;3.65;;;;;;;-141.84;65.24;21795.88;5025836;28;20190;-67
2023/08/26 10:10:43;;;;;;;4.00;3.60;;;;;;;-141.84;65.10;21808.09;5019628;28;20257;-67
2023/08/26 10:13:12;;;;;;;4.63;3.67;;;;;;;-141.84;62.83;21942.31;5027639;28;20199;-66
2023/08/26 10:15:41;;;;;;;6.63;3.88;;;;;;;-141.84;62.00;22029.75;5018165;28;20313;-65
2023/08/26 10:18:14;;;;;;;7.88;3.65;;;;;;;-141.84;59.39;22172.09;5032366;28;20292;-67
2023/08/26 10:20:44;;;;;;;3.47;2.95;;;;;;;-141.84;59.33;22190.38;5022140;28;20609;-67
2023/08/26 10:23:14;;;;;;;4.97;3.42;;;;;;;-141.84;60.18;22129.38;5019859;28;20265;-66
2023/08/26 10:25:43;;;;;;;5.13;3.70;;;;;;;-141.84;61.93;22013.47;5023807;28;20210;-66
2023/08/26 10:28:12;;;;;;;4.72;3.30;;;;;;;-141.84;61.68;22019.56;5025277;28;20194;-67
2023/08/26 10:30:40;;;;;;;3.50;3.17;;;;;;;-141.84;61.68;22009.41;5022775;28;20599;-66
2023/08/26 10:33:09;;;;;;;4.90;3.80;;;;;;;-141.84;60.70;22084.66;5021259;28;20205;-66
2023/08/26 10:35:41;;;;;;;5.93;3.67;;;;;;;-141.84;58.85;22119.22;5018506;28;20195;-67
2023/08/26 10:38:11;;;;;;;5.15;3.47;;;;;;;-141.84;58.83;22070.41;5025375;28;20198;-67
2023/08/26 10:40:41;;;;;;;5.07;3.58;;;;;;;-141.84;59.46;22052.09;5024523;28;20221;-65
2023/08/26 10:43:13;;;;;;;5.80;3.85;;;;;;;-141.84;60.02;21982.97;5025281;28;20333;-66
2023/08/26 10:45:49;;;;;;;6.88;3.80;;;;;;;-141.84;60.75;22043.97;5029129;28;20206;-66
2023/08/26 10:48:18;;;;;;;5.90;3.88;;;;;;;-141.84;58.25;22078.53;5029193;28;20206;-68
2023/08/26 10:50:59;;;;;;;4.63;3.47;;;;;;;-141.84;57.36;22131.41;5027320;28;20202;-66
2023/08/26 10:53:28;;;;;;;4.03;3.55;;;;;;;-141.84;56.44;22153.78;5027404;28;20269;-66
2023/08/26 10:56:14;;;;;;;3.78;3.45;;;;;;;-141.84;56.25;22202.59;5027800;28;20268;-66
2023/08/26 10:58:46;;;;;;;7.07;3.60;;;;;;;-141.84;56.85;22180.22;5028861;28;20194;-66
2023/08/26 11:01:16;;;;;;;4.65;3.22;;;;;;;-141.84;57.64;22151.75;5023869;28;20194;-65
2023/08/26 11:03:46;;;;;;;3.70;3.33;;;;;;;-141.84;57.20;22200.56;5020357;28;20215;-65
2023/08/26 11:06:19;;;;;;;5.57;3.08;;;;;;;-141.84;57.64;22198.53;5024789;28;20197;-66
2023/08/26 11:08:54;;;;;;;5.70;3.17;;;;;;;-141.84;55.57;22208.69;5024754;28;20213;-66
2023/08/26 11:11:25;;;;;;;5.20;3.17;;;;;;;-141.84;55.34;22216.81;5022667;28;20244;-67
2023/08/26 11:13:54;;;;;;;5.15;2.95;;;;;;;-141.84;56.42;22267.66;5023448;28;20198;-66
2023/08/26 11:16:23;;;;;;;3.70;3.20;;;;;;;-141.84;54.41;22322.56;5026298;28;20201;-66
2023/08/26 11:18:53;;;;;;;3.83;3.10;;;;;;;-141.84;54.92;22324.59;5026378;28;20202;-69
2023/08/26 11:21:22;;;;;;;4.25;3.40;;;;;;;-141.84;53.77;22338.84;5019573;28;20202;-66
2023/08/26 11:23:54;;;;;;;5.32;3.00;;;;;;;-141.84;52.16;22448.66;5024406;28;20300;-66
2023/08/26 11:26:25;;;;;;;4.15;2.80;;;;;;;-141.84;52.75;22534.09;5018953;28;20286;-65
2023/08/26 11:28:53;;;;;;;5.28;3.10;;;;;;;-141.84;51.42;22530.00;5019362;28;20692;-68